sensor_id;sensor_type;location;lat;lon;timestamp;temperature;humidity
15413;DHT22;7805;49.554;7.632;2024-01-15T00:01:46;-1.20;99.90
15413;DHT22;7805;49.554;7.632;2024-01-15T00:04:11;-0.70;99.90
15413;DHT22;7805;49.554;7.632;2024-01-15T00:06:37;-1.30;99.90
15413;DHT22;7805;49.554;7.632;2024-01-15T00:09:02;-1.40;99.90
15413;DHT22;7805;49.554;7.632;2024-01-15T00:11:28;-2.20;99.90
15413;DHT22;7805;49.554;7.632;2024-01-15T00:13:53;-1.40;99.90
15413;DHT22;7805;49.554;7.632;2024-01-15T00:16:19;-1.40;99.90
15413;DHT22;7805;49.554;7.632;2024-01-15T00:18:45;-1.40;99.90
15413;DHT22;7805;49.554;7.632;2024-01-15T00:21:10;-1.40;99.90
15413;DHT22;7805;49.554;7.632;2024-01-15T00:23:36;-1.40;99.90
15413;DHT22;7805;49.554;7.632;2024-01-15T00:26:01;-1.40;99.90
15413;DHT22;7805;49.554;7.632;2024-01-15T00:28:27;-1.40;99.90
15413;DHT22;7805;49.554;7.632;2024-01-15T00:30:53;-1.40;99.90
15413;DHT22;7805;49.554;7.632;2024-01-15T00:33:18;-1.40;99.90
15413;DHT22;7805;49.554;7.632;2024-01-15T00:35:44;-1.40;99.90
15413;DHT22;7805;49.554;7.632;2024-01-15T00:38:09;-1.40;99.90
15413;DHT22;7805;49.554;7.632;2024-01-15T00:40:35;-1.30;99.90
15413;DHT22;7805;49.554;7.632;2024-01-15T00:43:00;-1.40;99.90
15413;DHT22;7805;49.554;7.632;2024-01-15T00:45:27;-1.30;99.90
15413;DHT22;7805;49.554;7.632;2024-01-15T00:47:53;-1.30;99.90
15413;DHT22;7805;49.554;7.632;2024-01-15T00:50:18;-1.20;99.90
15413;DHT22;7805;49.554;7.632;2024-01-15T00:52:44;-1.20;99.90
15413;DHT22;7805;49.554;7.632;2024-01-15T00:55:09;-1.20;99.90
15413;DHT22;7805;49.554;7.632;2024-01-15T00:57:35;-1.00;99.90
15413;DHT22;7805;49.554;7.632;2024-01-15T01:00:01;-1.20;99.90
15413;DHT22;7805;49.554;7.632;2024-01-15T01:02:27;-1.20;99.90
15413;DHT22;7805;49.554;7.632;2024-01-15T01:04:52;-1.20;99.90
15413;DHT22;7805;49.554;7.632;2024-01-15T01:07:18;-1.20;99.90
15413;DHT22;7805;49.554;7.632;2024-01-15T01:09:44;-1.20;99.90
15413;DHT22;7805;49.554;7.632;2024-01-15T01:12:10;-1.20;99.90
15413;DHT22;7805;49.554;7.632;2024-01-15T01:14:37;-1.30;99.90
15413;DHT22;7805;49.554;7.632;2024-01-15T01:17:03;-1.20;99.90
15413;DHT22;7805;49.554;7.632;2024-01-15T01:19:28;-1.20;99.90
15413;DHT22;7805;49.554;7.632;2024-01-15T01:21:54;-1.20;99.90
15413;DHT22;7805;49.554;7.632;2024-01-15T01:24:19;-1.20;99.90
15413;DHT22;7805;49.554;7.632;2024-01-15T01:26:45;-1.30;99.90
15413;DHT22;7805;49.554;7.632;2024-01-15T01:29:12;-1.20;99.90
15413;DHT22;7805;49.554;7.632;2024-01-15T01:31:43;-1.20;99.90
15413;DHT22;7805;49.554;7.632;2024-01-15T01:34:09;-1.20;99.90
15413;DHT22;7805;49.554;7.632;2024-01-15T01:36:35;-1.20;99.90
15413;DHT22;7805;49.554;7.632;2024-01-15T01:39:00;-1.20;99.90
15413;DHT22;7805;49.554;7.632;2024-01-15T01:41:26;-1.20;99.90
15413;DHT22;7805;49.554;7.632;2024-01-15T01:43:51;-1.30;99.90
15413;DHT22;7805;49.554;7.632;2024-01-15T01:46:17;-1.20;99.90
15413;DHT22;7805;49.554;7.632;2024-01-15T01:48:43;-1.20;99.90
15413;DHT22;7805;49.554;7.632;2024-01-15T01:51:09;-1.20;99.90
15413;DHT22;7805;49.554;7.632;2024-01-15T01:53:37;-1.20;99.90
15413;DHT22;7805;49.554;7.632;2024-01-15T01:56:03;-1.30;99.90
15413;DHT22;7805;49.554;7.632;2024-01-15T01:58:30;-1.30;99.90
15413;DHT22;7805;49.554;7.632;2024-01-15T02:00:56;-1.30;99.90
15413;DHT22;7805;49.554;7.632;2024-01-15T02:03:22;-1.30;99.90
15413;DHT22;7805;49.554;7.632;2024-01-15T02:05:48;-1.30;99.90
15413;DHT22;7805;49.554;7.632;2024-01-15T02:08:15;-1.30;99.90
15413;DHT22;7805;49.554;7.632;2024-01-15T02:10:40;-1.30;99.90
15413;DHT22;7805;49.554;7.632;2024-01-15T02:13:06;-1.40;99.90
15413;DHT22;7805;49.554;7.632;2024-01-15T02:15:31;-1.30;99.90
15413;DHT22;7805;49.554;7.632;2024-01-15T02:18:05;-1.30;99.90
15413;DHT22;7805;49.554;7.632;2024-01-15T02:20:32;-1.30;99.90
15413;DHT22;7805;49.554;7.632;2024-01-15T02:23:09;-1.30;99.90
15413;DHT22;7805;49.554;7.632;2024-01-15T02:25:45;-1.30;99.90
15413;DHT22;7805;49.554;7.632;2024-01-15T02:28:13;-1.30;99.90
15413;DHT22;7805;49.554;7.632;2024-01-15T02:30:40;-1.30;99.90
15413;DHT22;7805;49.554;7.632;2024-01-15T02:33:07;-1.30;99.90
15413;DHT22;7805;49.554;7.632;2024-01-15T02:35:33;-1.30;99.90
15413;DHT22;7805;49.554;7.632;2024-01-15T02:37:59;-1.30;99.90
15413;DHT22;7805;49.554;7.632;2024-01-15T02:40:25;-1.30;99.90
15413;DHT22;7805;49.554;7.632;2024-01-15T02:42:50;-1.30;99.90
15413;DHT22;7805;49.554;7.632;2024-01-15T02:45:16;-1.30;99.90
15413;DHT22;7805;49.554;7.632;2024-01-15T02:47:42;-1.20;99.90
15413;DHT22;7805;49.554;7.632;2024-01-15T02:50:08;-1.20;99.90
15413;DHT22;7805;49.554;7.632;2024-01-15T02:52:33;-1.40;99.90
15413;DHT22;7805;49.554;7.632;2024-01-15T02:54:59;-1.20;99.90
15413;DHT22;7805;49.554;7.632;2024-01-15T02:57:24;-1.20;99.90
15413;DHT22;7805;49.554;7.632;2024-01-15T02:59:50;-1.20;99.90
15413;DHT22;7805;49.554;7.632;2024-01-15T03:02:16;-1.10;99.90
15413;DHT22;7805;49.554;7.632;2024-01-15T03:04:45;-1.00;99.90
15413;DHT22;7805;49.554;7.632;2024-01-15T03:07:10;-1.00;99.90
15413;DHT22;7805;49.554;7.632;2024-01-15T03:09:36;-1.00;99.90
15413;DHT22;7805;49.554;7.632;2024-01-15T03:12:01;-1.00;99.90
15413;DHT22;7805;49.554;7.632;2024-01-15T03:14:27;-1.00;99.90
15413;DHT22;7805;49.554;7.632;2024-01-15T03:16:53;-0.90;99.90
15413;DHT22;7805;49.554;7.632;2024-01-15T03:19:19;-0.80;99.90
15413;DHT22;7805;49.554;7.632;2024-01-15T03:21:44;-0.90;99.90
15413;DHT22;7805;49.554;7.632;2024-01-15T03:24:10;-0.80;99.90
15413;DHT22;7805;49.554;7.632;2024-01-15T03:26:36;-0.90;99.90
15413;DHT22;7805;49.554;7.632;2024-01-15T03:29:01;-0.80;99.90
15413;DHT22;7805;49.554;7.632;2024-01-15T03:31:27;-0.80;99.90
15413;DHT22;7805;49.554;7.632;2024-01-15T03:33:52;-0.90;99.90
15413;DHT22;7805;49.554;7.632;2024-01-15T03:36:18;-0.80;99.90
15413;DHT22;7805;49.554;7.632;2024-01-15T03:38:44;-0.80;99.90
15413;DHT22;7805;49.554;7.632;2024-01-15T03:41:09;-0.80;99.90
15413;DHT22;7805;49.554;7.632;2024-01-15T03:43:35;-0.70;99.90
15413;DHT22;7805;49.554;7.632;2024-01-15T03:46:00;-0.70;99.90
15413;DHT22;7805;49.554;7.632;2024-01-15T03:48:27;-0.70;99.90
15413;DHT22;7805;49.554;7.632;2024-01-15T03:50:53;-0.70;99.90
15413;DHT22;7805;49.554;7.632;2024-01-15T03:53:18;-0.70;99.90
15413;DHT22;7805;49.554;7.632;2024-01-15T03:55:44;-0.70;99.90
15413;DHT22;7805;49.554;7.632;2024-01-15T03:58:09;-0.60;99.90
15413;DHT22;7805;49.554;7.632;2024-01-15T04:00:35;-0.60;99.90
15413;DHT22;7805;49.554;7.632;2024-01-15T04:03:01;-0.60;99.90
15413;DHT22;7805;49.554;7.632;2024-01-15T04:05:26;-0.60;99.90
15413;DHT22;7805;49.554;7.632;2024-01-15T04:07:52;-0.60;99.90
15413;DHT22;7805;49.554;7.632;2024-01-15T04:10:17;-0.60;99.90
15413;DHT22;7805;49.554;7.632;2024-01-15T04:12:43;-0.60;99.90
15413;DHT22;7805;49.554;7.632;2024-01-15T04:15:09;-0.50;99.90
15413;DHT22;7805;49.554;7.632;2024-01-15T04:17:34;-0.50;99.90
15413;DHT22;7805;49.554;7.632;2024-01-15T04:20:00;-0.50;99.90
15413;DHT22;7805;49.554;7.632;2024-01-15T04:22:27;-0.50;99.90
15413;DHT22;7805;49.554;7.632;2024-01-15T04:24:52;-0.50;99.90
15413;DHT22;7805;49.554;7.632;2024-01-15T04:27:18;-0.50;99.90
15413;DHT22;7805;49.554;7.632;2024-01-15T04:29:43;-0.50;99.90
15413;DHT22;7805;49.554;7.632;2024-01-15T04:32:10;-2.10;99.90
15413;DHT22;7805;49.554;7.632;2024-01-15T04:34:35;-0.40;99.90
15413;DHT22;7805;49.554;7.632;2024-01-15T04:37:01;-0.40;99.90
15413;DHT22;7805;49.554;7.632;2024-01-15T04:39:26;-0.40;99.90
15413;DHT22;7805;49.554;7.632;2024-01-15T04:41:52;-0.40;99.90
15413;DHT22;7805;49.554;7.632;2024-01-15T04:44:18;-0.40;99.90
15413;DHT22;7805;49.554;7.632;2024-01-15T04:46:44;-0.30;99.90
15413;DHT22;7805;49.554;7.632;2024-01-15T04:49:10;1.30;99.90
15413;DHT22;7805;49.554;7.632;2024-01-15T04:51:36;-0.30;99.90
15413;DHT22;7805;49.554;7.632;2024-01-15T04:54:01;-0.30;99.90
15413;DHT22;7805;49.554;7.632;2024-01-15T04:56:27;-0.20;99.90
15413;DHT22;7805;49.554;7.632;2024-01-15T04:58:52;-0.20;99.90
15413;DHT22;7805;49.554;7.632;2024-01-15T05:01:18;-0.20;99.90
15413;DHT22;7805;49.554;7.632;2024-01-15T05:03:43;-0.20;99.90
15413;DHT22;7805;49.554;7.632;2024-01-15T05:06:09;-0.20;99.90
15413;DHT22;7805;49.554;7.632;2024-01-15T05:08:35;-0.20;99.90
15413;DHT22;7805;49.554;7.632;2024-01-15T05:11:00;-0.30;99.90
15413;DHT22;7805;49.554;7.632;2024-01-15T05:13:26;-0.20;99.90
15413;DHT22;7805;49.554;7.632;2024-01-15T05:15:52;-0.20;99.90
15413;DHT22;7805;49.554;7.632;2024-01-15T05:18:18;-0.20;99.90
15413;DHT22;7805;49.554;7.632;2024-01-15T05:20:44;-0.30;99.90
15413;DHT22;7805;49.554;7.632;2024-01-15T05:23:09;-0.30;99.90
15413;DHT22;7805;49.554;7.632;2024-01-15T05:25:35;-0.20;99.90
15413;DHT22;7805;49.554;7.632;2024-01-15T05:28:01;-0.20;99.90
15413;DHT22;7805;49.554;7.632;2024-01-15T05:30:26;-0.20;99.90
15413;DHT22;7805;49.554;7.632;2024-01-15T05:32:52;-0.20;99.90
15413;DHT22;7805;49.554;7.632;2024-01-15T05:35:17;-0.20;99.90
15413;DHT22;7805;49.554;7.632;2024-01-15T05:37:44;-0.20;99.90
15413;DHT22;7805;49.554;7.632;2024-01-15T05:40:11;-0.10;99.90
15413;DHT22;7805;49.554;7.632;2024-01-15T05:42:37;-0.10;99.90
15413;DHT22;7805;49.554;7.632;2024-01-15T05:45:03;-0.10;99.90
15413;DHT22;7805;49.554;7.632;2024-01-15T05:47:30;-0.10;99.90
15413;DHT22;7805;49.554;7.632;2024-01-15T05:49:56;-0.10;99.90
15413;DHT22;7805;49.554;7.632;2024-01-15T05:52:22;0.00;99.90
15413;DHT22;7805;49.554;7.632;2024-01-15T05:54:49;0.00;99.90
15413;DHT22;7805;49.554;7.632;2024-01-15T05:57:15;0.00;99.90
15413;DHT22;7805;49.554;7.632;2024-01-15T05:59:40;0.10;99.90
15413;DHT22;7805;49.554;7.632;2024-01-15T06:02:06;0.00;99.90
15413;DHT22;7805;49.554;7.632;2024-01-15T06:04:32;-0.10;99.90
15413;DHT22;7805;49.554;7.632;2024-01-15T06:06:57;-0.10;99.90
15413;DHT22;7805;49.554;7.632;2024-01-15T06:09:23;-0.10;99.90
15413;DHT22;7805;49.554;7.632;2024-01-15T06:11:48;-0.10;99.90
15413;DHT22;7805;49.554;7.632;2024-01-15T06:14:14;-0.10;99.90
15413;DHT22;7805;49.554;7.632;2024-01-15T06:16:39;-0.10;99.90
15413;DHT22;7805;49.554;7.632;2024-01-15T06:19:05;0.00;99.90
15413;DHT22;7805;49.554;7.632;2024-01-15T06:21:30;0.00;99.90
15413;DHT22;7805;49.554;7.632;2024-01-15T06:23:56;0.00;99.90
15413;DHT22;7805;49.554;7.632;2024-01-15T06:26:22;0.10;99.90
15413;DHT22;7805;49.554;7.632;2024-01-15T06:28:48;0.10;99.90
15413;DHT22;7805;49.554;7.632;2024-01-15T06:31:13;0.10;99.90
15413;DHT22;7805;49.554;7.632;2024-01-15T06:33:39;0.10;99.90
15413;DHT22;7805;49.554;7.632;2024-01-15T06:36:05;0.20;99.90
15413;DHT22;7805;49.554;7.632;2024-01-15T06:38:31;0.20;99.90
15413;DHT22;7805;49.554;7.632;2024-01-15T06:40:56;0.20;99.90
15413;DHT22;7805;49.554;7.632;2024-01-15T06:43:22;0.30;99.90
15413;DHT22;7805;49.554;7.632;2024-01-15T06:45:47;0.20;99.90
15413;DHT22;7805;49.554;7.632;2024-01-15T06:48:13;0.20;99.90
15413;DHT22;7805;49.554;7.632;2024-01-15T06:50:42;0.30;99.90
15413;DHT22;7805;49.554;7.632;2024-01-15T06:53:07;0.30;99.90
15413;DHT22;7805;49.554;7.632;2024-01-15T06:55:33;0.30;99.90
15413;DHT22;7805;49.554;7.632;2024-01-15T06:57:58;0.30;99.90
15413;DHT22;7805;49.554;7.632;2024-01-15T07:00:24;0.30;99.90
15413;DHT22;7805;49.554;7.632;2024-01-15T07:02:49;0.30;99.90
15413;DHT22;7805;49.554;7.632;2024-01-15T07:05:15;0.30;99.90
15413;DHT22;7805;49.554;7.632;2024-01-15T07:07:40;0.30;99.90
15413;DHT22;7805;49.554;7.632;2024-01-15T07:10:07;0.30;99.90
15413;DHT22;7805;49.554;7.632;2024-01-15T07:12:32;0.30;99.90
15413;DHT22;7805;49.554;7.632;2024-01-15T07:14:58;0.30;99.90
15413;DHT22;7805;49.554;7.632;2024-01-15T07:17:23;0.30;99.90
15413;DHT22;7805;49.554;7.632;2024-01-15T07:19:49;0.30;99.90
15413;DHT22;7805;49.554;7.632;2024-01-15T07:22:14;0.40;99.90
15413;DHT22;7805;49.554;7.632;2024-01-15T07:24:43;0.40;99.90
15413;DHT22;7805;49.554;7.632;2024-01-15T07:27:09;0.40;99.90
15413;DHT22;7805;49.554;7.632;2024-01-15T07:29:35;0.40;99.90
15413;DHT22;7805;49.554;7.632;2024-01-15T07:32:04;0.40;99.90
15413;DHT22;7805;49.554;7.632;2024-01-15T07:34:30;0.50;99.90
15413;DHT22;7805;49.554;7.632;2024-01-15T07:36:57;0.60;99.90
15413;DHT22;7805;49.554;7.632;2024-01-15T07:39:23;0.50;99.90
15413;DHT22;7805;49.554;7.632;2024-01-15T07:41:50;0.50;99.90
15413;DHT22;7805;49.554;7.632;2024-01-15T07:44:16;0.50;99.90
15413;DHT22;7805;49.554;7.632;2024-01-15T07:46:45;0.40;99.90
15413;DHT22;7805;49.554;7.632;2024-01-15T07:49:11;0.40;99.90
15413;DHT22;7805;49.554;7.632;2024-01-15T07:51:37;0.50;99.90
15413;DHT22;7805;49.554;7.632;2024-01-15T07:54:02;0.50;99.90
15413;DHT22;7805;49.554;7.632;2024-01-15T07:56:28;0.50;99.90
15413;DHT22;7805;49.554;7.632;2024-01-15T07:58:54;0.50;99.90
15413;DHT22;7805;49.554;7.632;2024-01-15T08:01:19;0.50;99.90
15413;DHT22;7805;49.554;7.632;2024-01-15T08:03:45;0.50;99.90
15413;DHT22;7805;49.554;7.632;2024-01-15T08:06:10;0.50;99.90
15413;DHT22;7805;49.554;7.632;2024-01-15T08:08:37;0.50;99.90
15413;DHT22;7805;49.554;7.632;2024-01-15T08:11:03;0.50;99.90
15413;DHT22;7805;49.554;7.632;2024-01-15T08:13:28;0.50;99.90
15413;DHT22;7805;49.554;7.632;2024-01-15T08:15:54;0.60;99.90
15413;DHT22;7805;49.554;7.632;2024-01-15T08:18:19;0.60;99.90
15413;DHT22;7805;49.554;7.632;2024-01-15T08:20:47;0.50;99.90
15413;DHT22;7805;49.554;7.632;2024-01-15T08:23:16;0.60;99.90
15413;DHT22;7805;49.554;7.632;2024-01-15T08:25:42;0.60;99.90
15413;DHT22;7805;49.554;7.632;2024-01-15T08:28:08;0.60;99.90
15413;DHT22;7805;49.554;7.632;2024-01-15T08:30:34;0.70;99.90
15413;DHT22;7805;49.554;7.632;2024-01-15T08:33:00;0.60;99.90
15413;DHT22;7805;49.554;7.632;2024-01-15T08:35:25;0.60;99.90
15413;DHT22;7805;49.554;7.632;2024-01-15T08:37:54;0.60;99.90
15413;DHT22;7805;49.554;7.632;2024-01-15T08:40:19;0.70;99.90
15413;DHT22;7805;49.554;7.632;2024-01-15T08:42:45;0.70;99.90
15413;DHT22;7805;49.554;7.632;2024-01-15T08:45:11;0.80;99.90
15413;DHT22;7805;49.554;7.632;2024-01-15T08:47:37;0.80;99.90
15413;DHT22;7805;49.554;7.632;2024-01-15T08:50:03;0.90;99.90
15413;DHT22;7805;49.554;7.632;2024-01-15T08:52:29;0.90;99.90
15413;DHT22;7805;49.554;7.632;2024-01-15T08:54:56;0.90;99.90
15413;DHT22;7805;49.554;7.632;2024-01-15T08:57:22;2.80;99.90
15413;DHT22;7805;49.554;7.632;2024-01-15T08:59:48;1.10;99.90
15413;DHT22;7805;49.554;7.632;2024-01-15T09:02:13;1.10;99.90
15413;DHT22;7805;49.554;7.632;2024-01-15T09:04:39;1.10;99.90
15413;DHT22;7805;49.554;7.632;2024-01-15T09:07:05;1.10;99.90
15413;DHT22;7805;49.554;7.632;2024-01-15T09:09:30;1.20;99.90
15413;DHT22;7805;49.554;7.632;2024-01-15T09:11:56;1.20;99.90
15413;DHT22;7805;49.554;7.632;2024-01-15T09:14:22;1.30;99.90
15413;DHT22;7805;49.554;7.632;2024-01-15T09:16:49;1.30;99.90
15413;DHT22;7805;49.554;7.632;2024-01-15T09:19:15;1.30;99.90
15413;DHT22;7805;49.554;7.632;2024-01-15T09:21:40;1.40;99.90
15413;DHT22;7805;49.554;7.632;2024-01-15T09:24:06;1.40;99.90
15413;DHT22;7805;49.554;7.632;2024-01-15T09:26:32;1.40;99.90
15413;DHT22;7805;49.554;7.632;2024-01-15T09:28:57;1.40;99.90
15413;DHT22;7805;49.554;7.632;2024-01-15T09:31:23;1.40;99.90
15413;DHT22;7805;49.554;7.632;2024-01-15T09:33:49;1.40;99.90
15413;DHT22;7805;49.554;7.632;2024-01-15T09:36:17;1.40;99.90
15413;DHT22;7805;49.554;7.632;2024-01-15T09:38:43;1.40;99.90
15413;DHT22;7805;49.554;7.632;2024-01-15T09:41:08;1.50;99.90
15413;DHT22;7805;49.554;7.632;2024-01-15T09:43:36;1.50;99.90
15413;DHT22;7805;49.554;7.632;2024-01-15T09:46:03;1.50;99.90
15413;DHT22;7805;49.554;7.632;2024-01-15T09:48:28;1.40;99.90
15413;DHT22;7805;49.554;7.632;2024-01-15T09:50:55;1.30;99.90
15413;DHT22;7805;49.554;7.632;2024-01-15T09:53:21;1.40;99.90
15413;DHT22;7805;49.554;7.632;2024-01-15T09:55:47;1.40;99.90
15413;DHT22;7805;49.554;7.632;2024-01-15T09:58:15;1.50;99.90
15413;DHT22;7805;49.554;7.632;2024-01-15T10:00:41;1.60;99.90
15413;DHT22;7805;49.554;7.632;2024-01-15T10:03:09;1.60;99.90
15413;DHT22;7805;49.554;7.632;2024-01-15T10:05:37;1.70;99.90
15413;DHT22;7805;49.554;7.632;2024-01-15T10:08:03;1.60;99.90
15413;DHT22;7805;49.554;7.632;2024-01-15T10:10:29;1.50;99.90
15413;DHT22;7805;49.554;7.632;2024-01-15T10:12:58;1.60;99.90
15413;DHT22;7805;49.554;7.632;2024-01-15T10:15:24;1.70;99.90
15413;DHT22;7805;49.554;7.632;2024-01-15T10:17:51;1.70;99.90
15413;DHT22;7805;49.554;7.632;2024-01-15T10:20:17;1.70;99.90
15413;DHT22;7805;49.554;7.632;2024-01-15T10:22:43;1.80;99.90
15413;DHT22;7805;49.554;7.632;2024-01-15T10:25:15;1.90;99.90
15413;DHT22;7805;49.554;7.632;2024-01-15T10:27:42;1.90;99.90
15413;DHT22;7805;49.554;7.632;2024-01-15T10:30:09;1.90;99.90
15413;DHT22;7805;49.554;7.632;2024-01-15T10:32:34;1.80;99.90
15413;DHT22;7805;49.554;7.632;2024-01-15T10:35:00;2.80;99.90
15413;DHT22;7805;49.554;7.632;2024-01-15T10:37:26;1.90;99.90
15413;DHT22;7805;49.554;7.632;2024-01-15T10:39:52;2.00;99.90
15413;DHT22;7805;49.554;7.632;2024-01-15T10:42:18;2.00;99.90
15413;DHT22;7805;49.554;7.632;2024-01-15T10:44:44;2.00;99.90
15413;DHT22;7805;49.554;7.632;2024-01-15T10:47:12;2.10;99.90
15413;DHT22;7805;49.554;7.632;2024-01-15T10:49:39;2.10;99.90
15413;DHT22;7805;49.554;7.632;2024-01-15T10:52:05;2.00;99.90
15413;DHT22;7805;49.554;7.632;2024-01-15T10:54:31;2.00;99.90
15413;DHT22;7805;49.554;7.632;2024-01-15T10:56:57;2.10;99.90
15413;DHT22;7805;49.554;7.632;2024-01-15T10:59:23;2.10;99.90
15413;DHT22;7805;49.554;7.632;2024-01-15T11:01:49;2.00;99.90
15413;DHT22;7805;49.554;7.632;2024-01-15T11:04:16;2.00;99.90
15413;DHT22;7805;49.554;7.632;2024-01-15T11:06:47;2.00;99.90
15413;DHT22;7805;49.554;7.632;2024-01-15T11:09:13;2.00;99.90
15413;DHT22;7805;49.554;7.632;2024-01-15T11:11:41;1.90;99.90
15413;DHT22;7805;49.554;7.632;2024-01-15T11:14:09;2.00;99.90
15413;DHT22;7805;49.554;7.632;2024-01-15T11:16:53;2.00;99.90
15413;DHT22;7805;49.554;7.632;2024-01-15T11:19:19;2.10;99.90
15413;DHT22;7805;49.554;7.632;2024-01-15T11:21:45;2.00;99.90
15413;DHT22;7805;49.554;7.632;2024-01-15T11:24:10;2.10;99.90
15413;DHT22;7805;49.554;7.632;2024-01-15T11:26:56;2.20;99.90
15413;DHT22;7805;49.554;7.632;2024-01-15T11:29:30;2.30;99.90
15413;DHT22;7805;49.554;7.632;2024-01-15T11:32:04;2.20;99.90
15413;DHT22;7805;49.554;7.632;2024-01-15T11:37:23;2.10;99.90
15413;DHT22;7805;49.554;7.632;2024-01-15T11:39:52;2.10;99.90
15413;DHT22;7805;49.554;7.632;2024-01-15T11:42:18;2.20;99.90
15413;DHT22;7805;49.554;7.632;2024-01-15T11:44:44;2.30;99.90
15413;DHT22;7805;49.554;7.632;2024-01-15T11:47:11;0.70;99.90
15413;DHT22;7805;49.554;7.632;2024-01-15T11:50:00;2.50;99.90
15413;DHT22;7805;49.554;7.632;2024-01-15T11:52:35;2.30;99.90
15413;DHT22;7805;49.554;7.632;2024-01-15T11:55:01;2.20;99.90
15413;DHT22;7805;49.554;7.632;2024-01-15T12:00:09;2.30;99.90
15413;DHT22;7805;49.554;7.632;2024-01-15T12:02:35;2.30;99.90
15413;DHT22;7805;49.554;7.632;2024-01-15T12:05:01;2.20;99.90
15413;DHT22;7805;49.554;7.632;2024-01-15T12:07:26;2.20;99.90
15413;DHT22;7805;49.554;7.632;2024-01-15T12:09:52;2.10;99.90
15413;DHT22;7805;49.554;7.632;2024-01-15T12:12:27;2.20;99.90
15413;DHT22;7805;49.554;7.632;2024-01-15T12:14:54;2.20;99.90
15413;DHT22;7805;49.554;7.632;2024-01-15T12:17:20;2.30;99.90
15413;DHT22;7805;49.554;7.632;2024-01-15T12:19:45;2.40;99.90
15413;DHT22;7805;49.554;7.632;2024-01-15T12:22:11;2.50;99.90
15413;DHT22;7805;49.554;7.632;2024-01-15T12:24:37;2.60;99.90
15413;DHT22;7805;49.554;7.632;2024-01-15T12:27:02;2.60;99.90
15413;DHT22;7805;49.554;7.632;2024-01-15T12:29:28;2.60;99.90
15413;DHT22;7805;49.554;7.632;2024-01-15T12:31:54;2.70;99.90
15413;DHT22;7805;49.554;7.632;2024-01-15T12:34:20;2.80;99.90
15413;DHT22;7805;49.554;7.632;2024-01-15T12:36:49;2.80;99.90
15413;DHT22;7805;49.554;7.632;2024-01-15T12:39:15;2.90;99.90
15413;DHT22;7805;49.554;7.632;2024-01-15T12:41:41;3.00;99.90
15413;DHT22;7805;49.554;7.632;2024-01-15T12:44:06;2.90;99.90
15413;DHT22;7805;49.554;7.632;2024-01-15T12:46:32;2.90;99.90
15413;DHT22;7805;49.554;7.632;2024-01-15T12:48:58;2.80;99.90
15413;DHT22;7805;49.554;7.632;2024-01-15T12:51:26;2.80;99.90
15413;DHT22;7805;49.554;7.632;2024-01-15T12:53:53;2.80;99.90
15413;DHT22;7805;49.554;7.632;2024-01-15T12:56:18;2.90;99.90
15413;DHT22;7805;49.554;7.632;2024-01-15T12:58:44;2.90;99.90
15413;DHT22;7805;49.554;7.632;2024-01-15T13:01:10;3.00;99.90
15413;DHT22;7805;49.554;7.632;2024-01-15T13:03:35;2.90;99.90
15413;DHT22;7805;49.554;7.632;2024-01-15T13:06:01;3.00;99.90
15413;DHT22;7805;49.554;7.632;2024-01-15T13:08:26;2.90;99.90
15413;DHT22;7805;49.554;7.632;2024-01-15T13:10:55;5.20;99.90
15413;DHT22;7805;49.554;7.632;2024-01-15T13:13:22;2.90;99.90
15413;DHT22;7805;49.554;7.632;2024-01-15T13:15:48;3.00;99.90
15413;DHT22;7805;49.554;7.632;2024-01-15T13:18:13;3.00;99.90
15413;DHT22;7805;49.554;7.632;2024-01-15T13:20:39;2.90;99.90
15413;DHT22;7805;49.554;7.632;2024-01-15T13:23:04;3.00;99.90
15413;DHT22;7805;49.554;7.632;2024-01-15T13:25:30;2.90;99.90
15413;DHT22;7805;49.554;7.632;2024-01-15T13:27:56;3.00;99.90
15413;DHT22;7805;49.554;7.632;2024-01-15T13:30:22;3.00;99.90
15413;DHT22;7805;49.554;7.632;2024-01-15T13:32:47;3.10;99.90
15413;DHT22;7805;49.554;7.632;2024-01-15T13:35:13;3.00;99.90
15413;DHT22;7805;49.554;7.632;2024-01-15T13:37:39;3.00;99.90
15413;DHT22;7805;49.554;7.632;2024-01-15T13:40:07;3.10;99.90
15413;DHT22;7805;49.554;7.632;2024-01-15T13:42:35;3.20;99.90
15413;DHT22;7805;49.554;7.632;2024-01-15T13:45:04;3.20;99.90
15413;DHT22;7805;49.554;7.632;2024-01-15T13:47:31;3.30;99.90
15413;DHT22;7805;49.554;7.632;2024-01-15T13:49:57;3.20;99.90
15413;DHT22;7805;49.554;7.632;2024-01-15T13:52:23;3.30;99.90
15413;DHT22;7805;49.554;7.632;2024-01-15T13:54:48;3.30;99.90
15413;DHT22;7805;49.554;7.632;2024-01-15T13:57:14;3.30;99.90
15413;DHT22;7805;49.554;7.632;2024-01-15T13:59:40;3.30;99.90
15413;DHT22;7805;49.554;7.632;2024-01-15T14:02:05;3.20;99.90
15413;DHT22;7805;49.554;7.632;2024-01-15T14:04:31;3.20;99.90
15413;DHT22;7805;49.554;7.632;2024-01-15T14:06:56;3.40;99.90
15413;DHT22;7805;49.554;7.632;2024-01-15T14:09:22;3.10;99.90
15413;DHT22;7805;49.554;7.632;2024-01-15T14:11:48;3.30;99.90
15413;DHT22;7805;49.554;7.632;2024-01-15T14:14:14;3.20;99.90
15413;DHT22;7805;49.554;7.632;2024-01-15T14:16:40;3.30;99.90
15413;DHT22;7805;49.554;7.632;2024-01-15T14:19:05;3.50;99.90
15413;DHT22;7805;49.554;7.632;2024-01-15T14:21:35;3.60;99.90
15413;DHT22;7805;49.554;7.632;2024-01-15T14:24:01;3.60;99.90
15413;DHT22;7805;49.554;7.632;2024-01-15T14:26:26;3.60;99.90
15413;DHT22;7805;49.554;7.632;2024-01-15T14:28:53;3.60;99.90
15413;DHT22;7805;49.554;7.632;2024-01-15T14:31:20;3.30;99.90
15413;DHT22;7805;49.554;7.632;2024-01-15T14:33:46;3.40;99.90
15413;DHT22;7805;49.554;7.632;2024-01-15T14:36:12;3.30;99.90
15413;DHT22;7805;49.554;7.632;2024-01-15T14:38:37;3.30;99.90
15413;DHT22;7805;49.554;7.632;2024-01-15T14:41:03;3.30;99.90
15413;DHT22;7805;49.554;7.632;2024-01-15T14:43:29;3.20;99.90
15413;DHT22;7805;49.554;7.632;2024-01-15T14:45:55;3.20;99.90
15413;DHT22;7805;49.554;7.632;2024-01-15T14:48:22;3.20;99.90
15413;DHT22;7805;49.554;7.632;2024-01-15T14:50:47;3.20;99.90
15413;DHT22;7805;49.554;7.632;2024-01-15T14:53:13;3.20;99.90
15413;DHT22;7805;49.554;7.632;2024-01-15T14:55:38;3.20;99.90
15413;DHT22;7805;49.554;7.632;2024-01-15T14:58:04;3.30;99.90
15413;DHT22;7805;49.554;7.632;2024-01-15T15:00:30;3.20;99.90
15413;DHT22;7805;49.554;7.632;2024-01-15T15:02:55;3.20;99.90
15413;DHT22;7805;49.554;7.632;2024-01-15T15:05:21;3.10;99.90
15413;DHT22;7805;49.554;7.632;2024-01-15T15:07:46;3.10;99.90
15413;DHT22;7805;49.554;7.632;2024-01-15T15:10:12;3.10;99.90
15413;DHT22;7805;49.554;7.632;2024-01-15T15:12:38;3.00;99.90
15413;DHT22;7805;49.554;7.632;2024-01-15T15:15:04;3.00;99.90
15413;DHT22;7805;49.554;7.632;2024-01-15T15:17:29;2.90;99.90
15413;DHT22;7805;49.554;7.632;2024-01-15T15:19:55;2.90;99.90
15413;DHT22;7805;49.554;7.632;2024-01-15T15:22:21;2.90;99.90
15413;DHT22;7805;49.554;7.632;2024-01-15T15:24:46;2.90;99.90
15413;DHT22;7805;49.554;7.632;2024-01-15T15:27:12;2.90;99.90
15413;DHT22;7805;49.554;7.632;2024-01-15T15:29:38;2.90;99.90
15413;DHT22;7805;49.554;7.632;2024-01-15T15:32:03;2.90;99.90
15413;DHT22;7805;49.554;7.632;2024-01-15T15:34:29;3.00;99.90
15413;DHT22;7805;49.554;7.632;2024-01-15T15:36:55;3.00;99.90
15413;DHT22;7805;49.554;7.632;2024-01-15T15:39:20;2.90;99.90
15413;DHT22;7805;49.554;7.632;2024-01-15T15:41:46;2.80;99.90
15413;DHT22;7805;49.554;7.632;2024-01-15T15:44:12;2.70;99.90
15413;DHT22;7805;49.554;7.632;2024-01-15T15:46:40;2.70;99.90
15413;DHT22;7805;49.554;7.632;2024-01-15T15:49:05;4.00;99.90
15413;DHT22;7805;49.554;7.632;2024-01-15T15:51:35;2.80;99.90
15413;DHT22;7805;49.554;7.632;2024-01-15T15:54:03;2.80;99.90